Terminal Aerodrome Forecast
Issued by NWS

Home | Current Version | Previous Version | Text Only | Print | Product List | Glossary On
Versions: 1 2 3 4 5 6 7 8 9 10 11 12 13
000
FTUS41 KLWX 261135
TAFMTN
TAF
KMTN 261135Z 2612/2712 29014G24KT P6SM BKN050
     FM261900 28013G20KT P6SM SCT050
     FM262100 28009KT P6SM FEW050
     FM270000 28005KT P6SM SKC
     FM271000 20004KT P6SM SCT110=

USA.gov is the U.S. government's official web portal to all federal, state and local government web resources and services.